sensor_id;sensor_type;location;lat;lon;timestamp;pressure;altitude;pressure_sealevel;temperature;humidity
61554;BME280;47425;51.976;5.326;2023-04-26T00:00:30;101811.34;;;8.49;51.86
61554;BME280;47425;51.976;5.326;2023-04-26T00:02:58;101802.53;;;8.39;51.48
61554;BME280;47425;51.976;5.326;2023-04-26T00:05:25;101806.84;;;8.29;51.30
61554;BME280;47425;51.976;5.326;2023-04-26T00:07:52;101802.38;;;8.05;51.54
61554;BME280;47425;51.976;5.326;2023-04-26T00:10:20;101801.41;;;7.87;51.79
61554;BME280;47425;51.976;5.326;2023-04-26T00:12:46;101801.41;;;7.86;52.04
61554;BME280;47425;51.976;5.326;2023-04-26T00:15:12;101805.78;;;7.92;52.26
61554;BME280;47425;51.976;5.326;2023-04-26T00:17:40;101804.94;;;7.97;52.13
61554;BME280;47425;51.976;5.326;2023-04-26T00:20:08;101808.50;;;8.15;53.05
61554;BME280;47425;51.976;5.326;2023-04-26T00:22:36;101808.56;;;8.27;52.10
61554;BME280;47425;51.976;5.326;2023-04-26T00:25:04;101809.47;;;8.29;51.96
61554;BME280;47425;51.976;5.326;2023-04-26T00:27:32;101808.59;;;8.29;51.80
61554;BME280;47425;51.976;5.326;2023-04-26T00:29:58;101806.84;;;8.26;51.74
61554;BME280;47425;51.976;5.326;2023-04-26T00:32:24;101805.94;;;8.18;51.97
61554;BME280;47425;51.976;5.326;2023-04-26T00:34:52;101792.91;;;8.19;52.28
61554;BME280;47425;51.976;5.326;2023-04-26T00:37:20;101802.53;;;8.34;52.13
61554;BME280;47425;51.976;5.326;2023-04-26T00:39:47;101794.66;;;8.25;51.68
61554;BME280;47425;51.976;5.326;2023-04-26T00:42:14;101792.84;;;8.07;51.79
61554;BME280;47425;51.976;5.326;2023-04-26T00:44:40;101792.75;;;7.93;52.07
61554;BME280;47425;51.976;5.326;2023-04-26T00:47:08;101792.72;;;7.87;52.38
61554;BME280;47425;51.976;5.326;2023-04-26T00:49:35;101794.44;;;7.85;52.47
61554;BME280;47425;51.976;5.326;2023-04-26T00:52:03;101790.13;;;7.87;52.56
61554;BME280;47425;51.976;5.326;2023-04-26T00:54:30;101783.22;;;7.98;53.00
61554;BME280;47425;51.976;5.326;2023-04-26T00:56:57;101789.38;;;8.13;52.70
61554;BME280;47425;51.976;5.326;2023-04-26T00:59:25;101792.03;;;8.25;52.70
61554;BME280;47425;51.976;5.326;2023-04-26T01:01:52;101800.78;;;8.33;52.54
61554;BME280;47425;51.976;5.326;2023-04-26T01:04:20;101794.66;;;8.28;52.02
61554;BME280;47425;51.976;5.326;2023-04-26T01:07:11;101792.03;;;8.22;52.47
61554;BME280;47425;51.976;5.326;2023-04-26T01:09:38;101795.47;;;8.16;52.07
61554;BME280;47425;51.976;5.326;2023-04-26T01:12:04;101794.53;;;8.00;52.06
61554;BME280;47425;51.976;5.326;2023-04-26T01:14:33;101792.78;;;7.98;52.91
61554;BME280;47425;51.976;5.326;2023-04-26T01:17:00;101798.00;;;8.01;52.72
61554;BME280;47425;51.976;5.326;2023-04-26T01:19:27;101793.72;;;8.09;52.74
61554;BME280;47425;51.976;5.326;2023-04-26T01:21:54;101792.84;;;8.10;52.56
61554;BME280;47425;51.976;5.326;2023-04-26T01:24:23;101801.53;;;8.07;53.01
61554;BME280;47425;51.976;5.326;2023-04-26T01:26:49;101796.38;;;8.17;52.76
61554;BME280;47425;51.976;5.326;2023-04-26T01:29:16;101811.16;;;8.26;52.67
61554;BME280;47425;51.976;5.326;2023-04-26T01:31:44;101805.97;;;8.27;52.44
61554;BME280;47425;51.976;5.326;2023-04-26T01:34:27;101810.38;;;8.36;52.75
61554;BME280;47425;51.976;5.326;2023-04-26T01:36:53;101806.97;;;8.51;53.03
61554;BME280;47425;51.976;5.326;2023-04-26T01:39:20;101818.34;;;8.64;52.29
61554;BME280;47425;51.976;5.326;2023-04-26T01:41:50;101811.38;;;8.60;51.84
61554;BME280;47425;51.976;5.326;2023-04-26T01:44:16;101808.72;;;8.50;52.42
61554;BME280;47425;51.976;5.326;2023-04-26T01:46:43;101806.19;;;8.70;52.70
61554;BME280;47425;51.976;5.326;2023-04-26T01:49:11;101802.69;;;8.73;51.92
61554;BME280;47425;51.976;5.326;2023-04-26T01:51:39;101794.84;;;8.67;52.09
61554;BME280;47425;51.976;5.326;2023-04-26T01:54:05;101800.94;;;8.61;51.88
61554;BME280;47425;51.976;5.326;2023-04-26T01:56:33;101792.19;;;8.56;52.26
61554;BME280;47425;51.976;5.326;2023-04-26T01:59:01;101792.19;;;8.53;52.40
61554;BME280;47425;51.976;5.326;2023-04-26T02:01:28;101794.81;;;8.53;52.32
61554;BME280;47425;51.976;5.326;2023-04-26T02:03:55;101795.69;;;8.63;52.65
61554;BME280;47425;51.976;5.326;2023-04-26T02:06:21;101792.19;;;8.59;52.04
61554;BME280;47425;51.976;5.326;2023-04-26T02:08:50;101793.91;;;8.49;52.27
61554;BME280;47425;51.976;5.326;2023-04-26T02:11:17;101805.25;;;8.51;52.58
61554;BME280;47425;51.976;5.326;2023-04-26T02:13:43;101793.09;;;8.61;52.42
61554;BME280;47425;51.976;5.326;2023-04-26T02:16:11;101798.34;;;8.73;52.77
61554;BME280;47425;51.976;5.326;2023-04-26T02:18:41;101794.03;;;8.86;52.74
61554;BME280;47425;51.976;5.326;2023-04-26T02:21:09;101797.53;;;8.96;52.09
61554;BME280;47425;51.976;5.326;2023-04-26T02:23:35;101794.03;;;9.02;52.25
61554;BME280;47425;51.976;5.326;2023-04-26T02:26:03;101796.66;;;9.16;52.18
61554;BME280;47425;51.976;5.326;2023-04-26T02:28:29;101794.06;;;9.33;52.11
61554;BME280;47425;51.976;5.326;2023-04-26T02:30:57;101791.47;;;9.48;51.87
61554;BME280;47425;51.976;5.326;2023-04-26T02:33:25;101789.72;;;9.55;51.43
61554;BME280;47425;51.976;5.326;2023-04-26T02:35:54;101797.56;;;9.56;51.15
61554;BME280;47425;51.976;5.326;2023-04-26T02:38:21;101801.03;;;9.65;51.32
61554;BME280;47425;51.976;5.326;2023-04-26T02:40:47;101791.41;;;9.67;51.17
61554;BME280;47425;51.976;5.326;2023-04-26T02:43:16;101788.78;;;9.76;51.22
61554;BME280;47425;51.976;5.326;2023-04-26T02:45:42;101796.66;;;9.81;51.19
61554;BME280;47425;51.976;5.326;2023-04-26T02:48:11;101795.75;;;9.96;51.16
61554;BME280;47425;51.976;5.326;2023-04-26T02:50:39;101794.78;;;10.14;51.48
61554;BME280;47425;51.976;5.326;2023-04-26T02:53:07;101794.72;;;10.41;51.42
61554;BME280;47425;51.976;5.326;2023-04-26T02:55:34;101791.16;;;10.58;50.88
61554;BME280;47425;51.976;5.326;2023-04-26T02:58:00;101793.84;;;10.50;49.53
61554;BME280;47425;51.976;5.326;2023-04-26T03:00:27;101792.09;;;10.34;49.55
61554;BME280;47425;51.976;5.326;2023-04-26T03:02:53;101788.66;;;10.25;50.19
61554;BME280;47425;51.976;5.326;2023-04-26T03:05:20;101786.09;;;10.07;49.64
61554;BME280;47425;51.976;5.326;2023-04-26T03:07:48;101776.59;;;9.84;49.44
61554;BME280;47425;51.976;5.326;2023-04-26T03:10:16;101777.50;;;9.65;50.04
61554;BME280;47425;51.976;5.326;2023-04-26T03:12:43;101775.75;;;9.44;49.41
61554;BME280;47425;51.976;5.326;2023-04-26T03:15:09;101771.41;;;9.05;49.54
61554;BME280;47425;51.976;5.326;2023-04-26T03:17:38;101780.91;;;8.71;49.66
61554;BME280;47425;51.976;5.326;2023-04-26T03:20:06;101783.50;;;8.65;50.78
61554;BME280;47425;51.976;5.326;2023-04-26T03:22:33;101780.91;;;8.63;51.05
61554;BME280;47425;51.976;5.326;2023-04-26T03:25:01;101780.91;;;8.59;50.99
61554;BME280;47425;51.976;5.326;2023-04-26T03:27:29;101773.03;;;8.48;51.35
61554;BME280;47425;51.976;5.326;2023-04-26T03:29:56;101779.91;;;8.36;51.18
61554;BME280;47425;51.976;5.326;2023-04-26T03:32:22;101781.56;;;8.13;51.22
61554;BME280;47425;51.976;5.326;2023-04-26T03:34:49;101781.47;;;7.94;51.61
61554;BME280;47425;51.976;5.326;2023-04-26T03:37:17;101767.50;;;7.86;52.13
61554;BME280;47425;51.976;5.326;2023-04-26T03:39:50;101774.47;;;7.87;52.14
61554;BME280;47425;51.976;5.326;2023-04-26T03:42:21;101769.28;;;7.96;52.92
61554;BME280;47425;51.976;5.326;2023-04-26T03:44:47;101774.50;;;7.95;52.08
61554;BME280;47425;51.976;5.326;2023-04-26T03:47:15;101766.53;;;7.73;52.10
61554;BME280;47425;51.976;5.326;2023-04-26T03:49:41;101767.25;;;7.49;52.13
61554;BME280;47425;51.976;5.326;2023-04-26T03:52:08;101767.25;;;7.52;53.61
61554;BME280;47425;51.976;5.326;2023-04-26T03:54:35;101772.66;;;7.78;53.11
61554;BME280;47425;51.976;5.326;2023-04-26T03:57:03;101775.13;;;7.58;52.02
61554;BME280;47425;51.976;5.326;2023-04-26T03:59:31;101772.59;;;7.64;54.27
61554;BME280;47425;51.976;5.326;2023-04-26T04:01:58;101766.81;;;8.18;54.64
61554;BME280;47425;51.976;5.326;2023-04-26T04:04:26;101771.13;;;8.20;52.08
61554;BME280;47425;51.976;5.326;2023-04-26T04:06:52;101771.88;;;7.90;51.80
61554;BME280;47425;51.976;5.326;2023-04-26T04:09:19;101771.81;;;7.79;52.79
61554;BME280;47425;51.976;5.326;2023-04-26T04:11:46;101770.16;;;7.97;53.02
61554;BME280;47425;51.976;5.326;2023-04-26T04:14:14;101769.25;;;7.88;52.42
61554;BME280;47425;51.976;5.326;2023-04-26T04:16:42;101765.63;;;7.62;52.14
61554;BME280;47425;51.976;5.326;2023-04-26T04:19:09;101765.44;;;7.38;52.48
61554;BME280;47425;51.976;5.326;2023-04-26T04:21:36;101767.94;;;7.25;52.85
61554;BME280;47425;51.976;5.326;2023-04-26T04:24:04;101767.84;;;7.15;53.18
61554;BME280;47425;51.976;5.326;2023-04-26T04:26:30;101766.06;;;7.08;53.48
61554;BME280;47425;51.976;5.326;2023-04-26T04:28:58;101763.53;;;7.17;54.17
61554;BME280;47425;51.976;5.326;2023-04-26T04:31:35;101773.38;;;7.51;54.16
61554;BME280;47425;51.976;5.326;2023-04-26T04:34:03;101765.56;;;7.52;53.24
61554;BME280;47425;51.976;5.326;2023-04-26T04:36:30;101775.16;;;7.60;53.60
61554;BME280;47425;51.976;5.326;2023-04-26T04:38:57;101700.28;;;7.37;53.52
61554;BME280;47425;51.976;5.326;2023-04-26T04:41:25;101778.78;;;7.85;52.73
61554;BME280;47425;51.976;5.326;2023-04-26T04:43:52;101779.66;;;7.82;52.12
61554;BME280;47425;51.976;5.326;2023-04-26T04:49:03;101776.97;;;7.68;52.36
61554;BME280;47425;51.976;5.326;2023-04-26T04:51:50;101783.16;;;7.90;52.78
61554;BME280;47425;51.976;5.326;2023-04-26T04:54:17;101785.03;;;8.12;52.47
61554;BME280;47425;51.976;5.326;2023-04-26T04:56:45;101789.47;;;8.31;52.42
61554;BME280;47425;51.976;5.326;2023-04-26T04:59:13;101787.75;;;8.43;51.84
61554;BME280;47425;51.976;5.326;2023-04-26T05:01:41;101782.66;;;8.58;52.30
61554;BME280;47425;51.976;5.326;2023-04-26T05:04:13;101788.75;;;8.66;51.39
61554;BME280;47425;51.976;5.326;2023-04-26T05:06:42;101794.00;;;8.80;51.99
61554;BME280;47425;51.976;5.326;2023-04-26T05:09:09;101786.22;;;8.97;52.15
61554;BME280;47425;51.976;5.326;2023-04-26T05:11:36;101792.31;;;9.07;51.29
61554;BME280;47425;51.976;5.326;2023-04-26T05:14:03;101796.66;;;8.99;51.45
61554;BME280;47425;51.976;5.326;2023-04-26T05:16:30;101793.19;;;9.29;52.65
61554;BME280;47425;51.976;5.326;2023-04-26T05:18:59;101800.16;;;9.64;51.57
61554;BME280;47425;51.976;5.326;2023-04-26T05:21:28;101804.50;;;9.56;51.00
61554;BME280;47425;51.976;5.326;2023-04-26T05:23:55;101800.16;;;9.49;51.62
61554;BME280;47425;51.976;5.326;2023-04-26T05:26:22;101806.22;;;9.80;52.27
61554;BME280;47425;51.976;5.326;2023-04-26T05:29:16;101807.06;;;10.04;51.40
61554;BME280;47425;51.976;5.326;2023-04-26T05:31:44;101804.34;;;10.39;52.67
61554;BME280;47425;51.976;5.326;2023-04-26T05:34:21;101804.97;;;10.88;51.16
61554;BME280;47425;51.976;5.326;2023-04-26T05:37:03;101805.81;;;10.90;50.20
61554;BME280;47425;51.976;5.326;2023-04-26T05:39:31;101812.84;;;10.89;50.37
61554;BME280;47425;51.976;5.326;2023-04-26T05:41:57;101807.53;;;10.99;50.37
61554;BME280;47425;51.976;5.326;2023-04-26T05:44:24;101810.06;;;11.13;50.42
61554;BME280;47425;51.976;5.326;2023-04-26T05:46:51;101805.63;;;11.19;50.06
61554;BME280;47425;51.976;5.326;2023-04-26T05:49:18;101816.06;;;11.29;49.34
61554;BME280;47425;51.976;5.326;2023-04-26T05:51:44;101813.59;;;11.07;49.66
61554;BME280;47425;51.976;5.326;2023-04-26T05:54:12;101814.41;;;11.15;50.25
61554;BME280;47425;51.976;5.326;2023-04-26T05:56:40;101812.25;;;11.65;50.62
61554;BME280;47425;51.976;5.326;2023-04-26T05:59:08;101816.31;;;11.99;49.57
61554;BME280;47425;51.976;5.326;2023-04-26T06:01:37;101818.63;;;12.28;49.87
61554;BME280;47425;51.976;5.326;2023-04-26T06:04:05;101823.28;;;12.73;49.41
61554;BME280;47425;51.976;5.326;2023-04-26T06:06:41;101820.53;;;12.84;48.56
61554;BME280;47425;51.976;5.326;2023-04-26T06:09:07;101819.44;;;12.99;48.50
61554;BME280;47425;51.976;5.326;2023-04-26T06:11:36;101808.44;;;13.30;48.10
61554;BME280;47425;51.976;5.326;2023-04-26T06:14:04;101813.38;;;13.51;47.56
61554;BME280;47425;51.976;5.326;2023-04-26T06:16:30;101816.78;;;13.58;47.61
61554;BME280;47425;51.976;5.326;2023-04-26T06:18:56;101812.75;;;13.87;47.24
61554;BME280;47425;51.976;5.326;2023-04-26T06:21:23;101833.63;;;13.96;46.16
61554;BME280;47425;51.976;5.326;2023-04-26T06:23:52;101822.28;;;13.42;45.08
61554;BME280;47425;51.976;5.326;2023-04-26T06:26:20;101836.69;;;13.17;46.46
61554;BME280;47425;51.976;5.326;2023-04-26T06:28:49;101830.44;;;13.24;46.49
61554;BME280;47425;51.976;5.326;2023-04-26T06:31:15;101831.75;;;13.54;46.67
61554;BME280;47425;51.976;5.326;2023-04-26T06:33:42;101834.81;;;13.80;46.97
61554;BME280;47425;51.976;5.326;2023-04-26T06:36:10;101838.56;;;14.15;46.40
61554;BME280;47425;51.976;5.326;2023-04-26T06:38:36;101840.69;;;14.39;45.79
61554;BME280;47425;51.976;5.326;2023-04-26T06:41:04;101849.34;;;14.46;45.22
61554;BME280;47425;51.976;5.326;2023-04-26T06:43:32;101849.97;;;14.59;44.68
61554;BME280;47425;51.976;5.326;2023-04-26T06:46:05;101848.19;;;14.61;44.95
61554;BME280;47425;51.976;5.326;2023-04-26T06:48:32;101851.75;;;14.58;44.47
61554;BME280;47425;51.976;5.326;2023-04-26T06:51:03;101845.16;;;13.90;44.15
61554;BME280;47425;51.976;5.326;2023-04-26T06:53:30;101849.47;;;13.45;44.07
61554;BME280;47425;51.976;5.326;2023-04-26T06:55:56;101846.81;;;13.46;46.35
61554;BME280;47425;51.976;5.326;2023-04-26T06:58:24;101846.94;;;13.88;46.14
61554;BME280;47425;51.976;5.326;2023-04-26T07:00:50;101846.28;;;14.24;45.63
61554;BME280;47425;51.976;5.326;2023-04-26T07:03:18;101845.03;;;13.98;44.86
61554;BME280;47425;51.976;5.326;2023-04-26T07:05:44;101850.91;;;14.11;45.48
61554;BME280;47425;51.976;5.326;2023-04-26T07:08:12;101844.47;;;14.27;45.16
61554;BME280;47425;51.976;5.326;2023-04-26T07:10:47;101840.16;;;14.23;44.04
61554;BME280;47425;51.976;5.326;2023-04-26T07:13:14;101843.31;;;13.96;44.57
61554;BME280;47425;51.976;5.326;2023-04-26T07:15:40;101842.75;;;13.78;44.58
61554;BME280;47425;51.976;5.326;2023-04-26T07:18:08;101840.09;;;13.80;44.48
61554;BME280;47425;51.976;5.326;2023-04-26T07:20:36;101837.81;;;13.59;44.17
61554;BME280;47425;51.976;5.326;2023-04-26T07:23:03;101839.72;;;13.50;45.79
61554;BME280;47425;51.976;5.326;2023-04-26T07:25:30;101842.00;;;13.71;44.63
61554;BME280;47425;51.976;5.326;2023-04-26T07:27:57;101837.53;;;13.75;45.07
61554;BME280;47425;51.976;5.326;2023-04-26T07:30:24;101838.94;;;13.95;45.34
61554;BME280;47425;51.976;5.326;2023-04-26T07:32:50;101838.34;;;14.25;45.32
61554;BME280;47425;51.976;5.326;2023-04-26T07:35:18;101844.47;;;14.27;43.56
61554;BME280;47425;51.976;5.326;2023-04-26T07:37:46;101844.78;;;14.10;43.31
61554;BME280;47425;51.976;5.326;2023-04-26T07:40:12;101839.03;;;13.88;43.27
61554;BME280;47425;51.976;5.326;2023-04-26T07:42:39;101843.53;;;13.82;44.23
61554;BME280;47425;51.976;5.326;2023-04-26T07:45:07;101846.72;;;14.02;44.44
61554;BME280;47425;51.976;5.326;2023-04-26T07:47:34;101850.75;;;14.20;44.42
61554;BME280;47425;51.976;5.326;2023-04-26T07:50:00;101844.69;;;14.17;44.39
61554;BME280;47425;51.976;5.326;2023-04-26T07:52:28;101837.59;;;14.19;43.84
61554;BME280;47425;51.976;5.326;2023-04-26T07:54:55;101853.22;;;13.81;42.05
61554;BME280;47425;51.976;5.326;2023-04-26T07:57:22;101856.06;;;13.69;43.78
61554;BME280;47425;51.976;5.326;2023-04-26T07:59:48;101858.03;;;14.07;43.80
61554;BME280;47425;51.976;5.326;2023-04-26T08:02:16;101859.81;;;14.05;43.99
61554;BME280;47425;51.976;5.326;2023-04-26T08:04:46;101860.78;;;14.47;43.73
61554;BME280;47425;51.976;5.326;2023-04-26T08:07:13;101854.06;;;14.32;42.16
61554;BME280;47425;51.976;5.326;2023-04-26T08:09:39;101865.34;;;14.38;43.79
61554;BME280;47425;51.976;5.326;2023-04-26T08:12:07;101869.94;;;14.72;42.57
61554;BME280;47425;51.976;5.326;2023-04-26T08:14:34;101863.53;;;14.40;41.54
61554;BME280;47425;51.976;5.326;2023-04-26T08:17:01;101861.69;;;14.44;42.22
61554;BME280;47425;51.976;5.326;2023-04-26T08:19:28;101868.53;;;14.53;42.93
61554;BME280;47425;51.976;5.326;2023-04-26T08:21:57;101861.91;;;14.77;42.52
61554;BME280;47425;51.976;5.326;2023-04-26T08:24:24;101866.44;;;14.72;41.09
61554;BME280;47425;51.976;5.326;2023-04-26T08:26:50;101867.19;;;14.77;41.97
61554;BME280;47425;51.976;5.326;2023-04-26T08:29:19;101869.81;;;14.79;41.21
61554;BME280;47425;51.976;5.326;2023-04-26T08:31:45;101866.34;;;14.76;40.42
61554;BME280;47425;51.976;5.326;2023-04-26T08:34:13;101861.78;;;14.39;40.61
61554;BME280;47425;51.976;5.326;2023-04-26T08:36:40;101864.78;;;14.22;40.49
61554;BME280;47425;51.976;5.326;2023-04-26T08:39:06;101866.91;;;14.47;41.34
61554;BME280;47425;51.976;5.326;2023-04-26T08:41:34;101860.19;;;14.32;41.24
61554;BME280;47425;51.976;5.326;2023-04-26T08:44:02;101854.69;;;14.43;40.97
61554;BME280;47425;51.976;5.326;2023-04-26T08:46:33;101862.06;;;14.71;41.72
61554;BME280;47425;51.976;5.326;2023-04-26T08:49:04;101869.22;;;15.05;40.71
61554;BME280;47425;51.976;5.326;2023-04-26T08:51:35;101859.09;;;15.25;40.47
61554;BME280;47425;51.976;5.326;2023-04-26T08:54:02;101854.28;;;15.04;39.25
61554;BME280;47425;51.976;5.326;2023-04-26T08:56:30;101856.69;;;15.15;41.56
61554;BME280;47425;51.976;5.326;2023-04-26T08:58:59;101852.47;;;15.07;41.20
61554;BME280;47425;51.976;5.326;2023-04-26T09:01:25;101851.63;;;15.43;41.68
61554;BME280;47425;51.976;5.326;2023-04-26T09:03:56;101850.81;;;15.75;40.03
61554;BME280;47425;51.976;5.326;2023-04-26T09:06:26;101847.03;;;15.87;41.41
61554;BME280;47425;51.976;5.326;2023-04-26T09:08:53;101849.03;;;16.10;40.39
61554;BME280;47425;51.976;5.326;2023-04-26T09:11:20;101843.00;;;16.05;40.88
61554;BME280;47425;51.976;5.326;2023-04-26T09:13:47;101845.81;;;15.65;38.47
61554;BME280;47425;51.976;5.326;2023-04-26T09:16:14;101854.28;;;15.41;39.54
61554;BME280;47425;51.976;5.326;2023-04-26T09:18:54;101849.00;;;15.05;40.16
61554;BME280;47425;51.976;5.326;2023-04-26T09:21:24;101848.88;;;15.10;41.17
61554;BME280;47425;51.976;5.326;2023-04-26T09:23:56;101846.88;;;15.20;40.82
61554;BME280;47425;51.976;5.326;2023-04-26T09:26:24;101845.56;;;15.39;41.74
61554;BME280;47425;51.976;5.326;2023-04-26T09:28:58;101850.84;;;15.02;37.09
61554;BME280;47425;51.976;5.326;2023-04-26T09:31:37;101850.78;;;14.19;38.68
61554;BME280;47425;51.976;5.326;2023-04-26T09:34:04;101848.44;;;13.52;38.67
61554;BME280;47425;51.976;5.326;2023-04-26T09:36:32;101854.28;;;13.15;38.80
61554;BME280;47425;51.976;5.326;2023-04-26T09:38:58;101864.69;;;13.21;40.44
61554;BME280;47425;51.976;5.326;2023-04-26T09:41:40;101852.78;;;12.97;39.00
61554;BME280;47425;51.976;5.326;2023-04-26T09:44:19;101863.34;;;12.23;39.59
61554;BME280;47425;51.976;5.326;2023-04-26T09:46:56;101859.69;;;12.34;41.28
61554;BME280;47425;51.976;5.326;2023-04-26T09:49:24;101865.78;;;12.39;40.77
61554;BME280;47425;51.976;5.326;2023-04-26T09:51:59;101864.56;;;12.65;42.00
61554;BME280;47425;51.976;5.326;2023-04-26T09:54:36;101864.44;;;12.75;41.22
61554;BME280;47425;51.976;5.326;2023-04-26T09:57:02;101862.88;;;12.64;40.25
61554;BME280;47425;51.976;5.326;2023-04-26T09:59:37;101859.59;;;12.43;41.35
61554;BME280;47425;51.976;5.326;2023-04-26T10:02:05;101857.03;;;12.38;41.29
61554;BME280;47425;51.976;5.326;2023-04-26T10:04:36;101855.47;;;12.20;40.55
61554;BME280;47425;51.976;5.326;2023-04-26T10:07:04;101853.94;;;12.01;40.72
61554;BME280;47425;51.976;5.326;2023-04-26T10:09:32;101852.28;;;11.87;40.96
61554;BME280;47425;51.976;5.326;2023-04-26T10:11:59;101850.50;;;11.88;40.81
61554;BME280;47425;51.976;5.326;2023-04-26T10:14:27;101853.97;;;11.95;41.27
61554;BME280;47425;51.976;5.326;2023-04-26T10:16:54;101844.38;;;11.89;40.92
61554;BME280;47425;51.976;5.326;2023-04-26T10:19:22;101846.97;;;11.97;41.32
61554;BME280;47425;51.976;5.326;2023-04-26T10:21:49;101852.94;;;12.13;42.10
61554;BME280;47425;51.976;5.326;2023-04-26T10:24:18;101853.41;;;12.50;41.24
61554;BME280;47425;51.976;5.326;2023-04-26T10:26:46;101849.38;;;12.88;41.33
61554;BME280;47425;51.976;5.326;2023-04-26T10:29:13;101853.66;;;13.55;42.69
61554;BME280;47425;51.976;5.326;2023-04-26T10:34:27;101843.63;;;13.22;39.23
61554;BME280;47425;51.976;5.326;2023-04-26T10:37:10;101843.00;;;13.05;39.46
61554;BME280;47425;51.976;5.326;2023-04-26T10:39:39;101836.44;;;13.34;39.73
61554;BME280;47425;51.976;5.326;2023-04-26T10:42:18;101844.53;;;13.20;39.46
61554;BME280;47425;51.976;5.326;2023-04-26T10:45:00;101846.38;;;13.13;40.45
61554;BME280;47425;51.976;5.326;2023-04-26T10:47:48;101847.81;;;13.36;41.29
61554;BME280;47425;51.976;5.326;2023-04-26T10:50:14;101846.38;;;13.71;41.52
61554;BME280;47425;51.976;5.326;2023-04-26T10:55:36;101849.63;;;13.85;41.79
61554;BME280;47425;51.976;5.326;2023-04-26T10:58:15;101847.97;;;13.81;40.67
61554;BME280;47425;51.976;5.326;2023-04-26T11:01:02;101851.41;;;13.85;41.47
61554;BME280;47425;51.976;5.326;2023-04-26T11:03:30;101846.91;;;13.91;41.16
61554;BME280;47425;51.976;5.326;2023-04-26T11:05:57;101852.16;;;13.91;40.91
61554;BME280;47425;51.976;5.326;2023-04-26T11:08:24;101851.97;;;14.02;41.84
61554;BME280;47425;51.976;5.326;2023-04-26T11:13:36;101854.63;;;14.48;41.44
61554;BME280;47425;51.976;5.326;2023-04-26T11:16:03;101843.97;;;14.52;41.14
61554;BME280;47425;51.976;5.326;2023-04-26T11:18:30;101845.94;;;14.42;40.52
61554;BME280;47425;51.976;5.326;2023-04-26T11:20:57;101838.09;;;14.38;40.46
61554;BME280;47425;51.976;5.326;2023-04-26T11:23:26;101834.03;;;13.74;38.95
61554;BME280;47425;51.976;5.326;2023-04-26T11:25:53;101838.47;;;13.72;40.59
61554;BME280;47425;51.976;5.326;2023-04-26T11:28:20;101832.03;;;13.89;40.10
61554;BME280;47425;51.976;5.326;2023-04-26T11:30:50;101833.56;;;13.51;38.93
61554;BME280;47425;51.976;5.326;2023-04-26T11:33:16;101826.59;;;13.47;40.50
61554;BME280;47425;51.976;5.326;2023-04-26T11:35:44;101828.50;;;13.88;41.56
61554;BME280;47425;51.976;5.326;2023-04-26T11:38:11;101830.06;;;14.00;40.56
61554;BME280;47425;51.976;5.326;2023-04-26T11:40:39;101830.06;;;14.00;39.18
61554;BME280;47425;51.976;5.326;2023-04-26T11:43:06;101827.66;;;13.88;38.27
61554;BME280;47425;51.976;5.326;2023-04-26T11:45:33;101831.25;;;13.84;40.27
61554;BME280;47425;51.976;5.326;2023-04-26T11:48:03;101828.84;;;13.71;39.33
61554;BME280;47425;51.976;5.326;2023-04-26T11:50:30;101831.78;;;13.53;38.35
61554;BME280;47425;51.976;5.326;2023-04-26T11:52:58;101827.47;;;13.49;39.05
61554;BME280;47425;51.976;5.326;2023-04-26T11:55:26;101830.41;;;13.80;40.04
61554;BME280;47425;51.976;5.326;2023-04-26T11:58:13;101829.94;;;13.58;37.99
61554;BME280;47425;51.976;5.326;2023-04-26T12:00:55;101827.84;;;13.22;38.54
61554;BME280;47425;51.976;5.326;2023-04-26T12:03:23;101829.56;;;13.25;38.96
61554;BME280;47425;51.976;5.326;2023-04-26T12:05:54;101830.41;;;13.27;38.80
61554;BME280;47425;51.976;5.326;2023-04-26T12:08:25;101831.00;;;13.46;39.07
61554;BME280;47425;51.976;5.326;2023-04-26T12:10:52;101825.75;;;13.46;38.36
61554;BME280;47425;51.976;5.326;2023-04-26T12:13:18;101826.06;;;13.24;38.14
61554;BME280;47425;51.976;5.326;2023-04-26T12:15:45;101833.50;;;12.96;37.98
61554;BME280;47425;51.976;5.326;2023-04-26T12:18:13;101831.75;;;12.95;39.85
61554;BME280;47425;51.976;5.326;2023-04-26T12:20:41;101834.53;;;13.45;39.66
61554;BME280;47425;51.976;5.326;2023-04-26T12:23:08;101833.41;;;14.10;41.59
61554;BME280;47425;51.976;5.326;2023-04-26T12:25:35;101836.75;;;14.60;39.82
61554;BME280;47425;51.976;5.326;2023-04-26T12:28:04;101835.66;;;14.72;38.14
61554;BME280;47425;51.976;5.326;2023-04-26T12:30:32;101824.47;;;14.59;37.72
61554;BME280;47425;51.976;5.326;2023-04-26T12:33:02;101827.53;;;14.39;36.31
61554;BME280;47425;51.976;5.326;2023-04-26T12:35:29;101833.25;;;14.16;36.92
61554;BME280;47425;51.976;5.326;2023-04-26T12:37:57;101841.91;;;14.68;39.43
61554;BME280;47425;51.976;5.326;2023-04-26T12:40:25;101835.22;;;15.30;39.37
61554;BME280;47425;51.976;5.326;2023-04-26T12:42:52;101826.63;;;15.58;38.08
61554;BME280;47425;51.976;5.326;2023-04-26T12:45:21;101827.69;;;15.85;37.85
61554;BME280;47425;51.976;5.326;2023-04-26T12:47:48;101826.44;;;15.64;35.54
61554;BME280;47425;51.976;5.326;2023-04-26T12:50:15;101831.63;;;15.33;36.18
61554;BME280;47425;51.976;5.326;2023-04-26T12:52:43;101824.47;;;15.02;34.76
61554;BME280;47425;51.976;5.326;2023-04-26T12:55:11;101823.09;;;14.85;35.64
61554;BME280;47425;51.976;5.326;2023-04-26T12:57:38;101822.34;;;14.79;35.56
61554;BME280;47425;51.976;5.326;2023-04-26T13:00:06;101821.75;;;14.66;36.08
61554;BME280;47425;51.976;5.326;2023-04-26T13:02:34;101827.78;;;15.10;39.44
61554;BME280;47425;51.976;5.326;2023-04-26T13:05:01;101823.50;;;15.76;38.78
61554;BME280;47425;51.976;5.326;2023-04-26T13:07:29;101821.94;;;16.34;38.56
61554;BME280;47425;51.976;5.326;2023-04-26T13:09:55;101825.66;;;16.28;34.99
61554;BME280;47425;51.976;5.326;2023-04-26T13:12:24;101818.22;;;15.76;34.32